createdAt,value
2018-04-25T06:29:07.291Z,13.60
2018-04-25T06:31:32.848Z,11.83
2018-04-25T06:33:58.512Z,11.70
2018-04-25T06:36:25.291Z,12.53
2018-04-25T06:38:51.108Z,12.85
2018-04-25T06:41:16.703Z,14.27
2018-04-25T06:43:42.483Z,13.57
2018-04-25T06:46:08.446Z,12.30
2018-04-25T06:48:34.058Z,15.20
2018-04-25T06:50:59.903Z,13.53
2018-04-25T06:53:25.485Z,12.57
2018-04-25T06:55:51.127Z,9.47
2018-04-25T06:58:17.424Z,13.87
2018-04-25T07:00:43.215Z,12.80
2018-04-25T07:03:08.828Z,15.70
2018-04-25T07:05:34.620Z,12.63
2018-04-25T07:08:00.398Z,14.47
2018-04-25T07:10:25.949Z,16.00
2018-04-25T07:12:51.808Z,12.77
2018-04-25T07:15:17.586Z,13.57
2018-04-25T07:17:43.244Z,13.00
2018-04-25T07:20:08.927Z,11.37
2018-04-25T07:22:34.774Z,14.13
2018-04-25T07:25:00.340Z,12.07
2018-04-25T07:27:25.974Z,11.37
2018-04-25T07:29:51.797Z,12.53
2018-04-25T07:32:17.356Z,12.10
2018-04-25T07:34:43.528Z,8.47
2018-04-25T07:37:09.403Z,9.37
2018-04-25T07:39:35.025Z,11.83
2018-04-25T07:42:00.743Z,11.37
2018-04-25T07:44:26.494Z,12.93
2018-04-25T07:46:52.055Z,12.37
2018-04-25T07:49:18.101Z,10.20
2018-04-25T07:51:43.940Z,11.73
2018-04-25T07:54:09.665Z,12.17
2018-04-25T07:56:35.499Z,11.50
2018-04-25T07:59:01.323Z,10.40
2018-04-25T08:01:26.894Z,9.77
2018-04-25T08:03:52.454Z,7.27
2018-04-25T08:06:18.304Z,8.60
2018-04-25T08:08:43.971Z,8.47
2018-04-25T08:11:09.706Z,10.93
2018-04-25T08:14:13.221Z,9.93
2018-04-25T08:17:16.399Z,10.52
2018-04-25T08:20:19.828Z,10.70
2018-04-25T08:22:45.447Z,15.13
2018-04-25T08:25:11.094Z,15.97
2018-04-25T08:27:36.897Z,9.10
2018-04-25T08:30:02.757Z,10.65
2018-04-25T08:32:28.307Z,10.83
2018-04-25T08:34:54.218Z,9.20
2018-04-25T08:37:19.859Z,8.80
2018-04-25T08:39:45.415Z,11.57
2018-04-25T08:42:11.213Z,13.13
2018-04-25T08:44:36.958Z,11.17
2018-04-25T08:47:02.422Z,8.30
2018-04-25T08:49:28.173Z,13.43
2018-04-25T08:51:53.760Z,11.03
2018-04-25T08:54:19.711Z,11.83
2018-04-25T08:56:45.561Z,11.83
2018-04-25T08:59:11.327Z,11.67
2018-04-25T09:01:36.860Z,11.53
2018-04-25T09:04:02.643Z,10.47
2018-04-25T09:06:28.300Z,11.20
2018-04-25T09:08:53.867Z,11.00
2018-04-25T09:11:19.681Z,6.47
2018-04-25T09:13:45.289Z,9.30
2018-04-25T09:16:10.879Z,7.30
2018-04-25T09:18:36.666Z,13.13
2018-04-25T09:21:02.494Z,9.77
2018-04-25T09:23:28.056Z,13.30
2018-04-25T09:25:54.185Z,13.00
2018-04-25T09:28:19.749Z,10.57
2018-04-25T09:30:45.417Z,9.33
2018-04-25T09:33:11.189Z,10.57
2018-04-25T09:35:36.772Z,9.43
2018-04-25T09:38:02.326Z,10.40
2018-04-25T09:40:28.546Z,11.30
2018-04-25T09:42:54.160Z,8.57
2018-04-25T09:45:19.996Z,8.80
2018-04-25T09:47:45.691Z,6.70
2018-04-25T09:50:11.243Z,12.63
2018-04-25T09:52:37.030Z,10.90
2018-04-25T09:55:02.862Z,7.53
2018-04-25T09:57:28.476Z,11.77
2018-04-25T09:59:54.064Z,6.83
2018-04-25T10:02:38.052Z,9.30
2018-04-25T10:05:03.941Z,8.33
2018-04-25T10:07:29.562Z,8.53
2018-04-25T10:09:55.399Z,9.53
2018-04-25T10:12:20.968Z,7.73
2018-04-25T10:14:46.745Z,9.63
2018-04-25T10:17:12.591Z,6.70
2018-04-25T10:19:38.141Z,7.80
2018-04-25T10:22:04.045Z,11.23
2018-04-25T10:24:29.768Z,6.20
2018-04-25T10:26:55.345Z,6.70
2018-04-25T10:29:20.924Z,7.40
2018-04-25T10:31:46.730Z,8.98
2018-04-25T10:34:12.350Z,9.77
2018-04-25T10:36:37.931Z,11.10
2018-04-25T10:39:03.641Z,6.53
2018-04-25T10:41:29.357Z,7.17
2018-04-25T10:43:55.046Z,9.50
2018-04-25T10:46:21.008Z,5.40
2018-04-25T10:48:46.577Z,7.47
2018-04-25T10:51:12.165Z,9.00
2018-04-25T10:53:37.890Z,7.73
2018-04-25T10:56:03.477Z,8.20
2018-04-25T10:58:29.096Z,7.87
2018-04-25T11:00:54.812Z,10.97
2018-04-25T11:03:20.422Z,12.23
2018-04-25T11:05:46.018Z,7.82
2018-04-25T11:08:11.812Z,6.90
2018-04-25T11:10:37.500Z,9.70
2018-04-25T11:13:03.071Z,7.97
2018-04-25T11:15:28.983Z,9.57
2018-04-25T11:17:54.561Z,7.90
2018-04-25T11:20:20.227Z,9.67
2018-04-25T11:22:45.953Z,6.67
2018-04-25T11:25:11.636Z,8.07
2018-04-25T11:27:37.421Z,5.90
2018-04-25T11:30:03.015Z,9.27
2018-04-25T11:32:28.581Z,7.27
2018-04-25T11:34:54.450Z,7.23
2018-04-25T11:37:20.225Z,11.57
2018-04-25T11:39:45.860Z,9.83
2018-04-25T11:42:11.681Z,7.93
2018-04-25T11:44:37.300Z,5.27
2018-04-25T11:47:02.987Z,4.43
2018-04-25T11:49:28.859Z,8.93
2018-04-25T11:51:54.537Z,6.30
2018-04-25T11:54:20.091Z,9.00
2018-04-25T11:56:46.015Z,13.97
2018-04-25T11:59:11.584Z,8.03
2018-04-25T12:01:37.166Z,4.87
2018-04-25T12:04:02.993Z,4.62
2018-04-25T12:06:28.577Z,8.10
2018-04-25T12:08:54.136Z,4.80
2018-04-25T12:11:19.961Z,5.62
2018-04-25T12:13:45.572Z,4.80
2018-04-25T12:16:11.336Z,4.13
2018-04-25T12:18:37.168Z,5.33
2018-04-25T12:21:02.703Z,5.37
2018-04-25T12:23:28.289Z,4.70
2018-04-25T12:25:54.079Z,6.17
2018-04-25T12:28:19.649Z,5.20
2018-04-25T12:30:45.445Z,2.53
2018-04-25T12:33:11.323Z,3.37
2018-04-25T12:35:37.082Z,4.60
2018-04-25T12:38:02.675Z,4.20
2018-04-25T12:40:28.536Z,2.80
2018-04-25T12:42:54.104Z,7.80
2018-04-25T12:45:19.666Z,3.90
2018-04-25T12:47:45.497Z,4.63
2018-04-25T12:50:11.242Z,5.10
2018-04-25T12:52:36.870Z,6.13
2018-04-25T12:55:02.512Z,5.90
2018-04-25T12:57:28.439Z,5.80
2018-04-25T12:59:55.057Z,3.53
2018-04-25T13:02:20.613Z,7.25
2018-04-25T13:04:46.670Z,6.80
2018-04-25T13:07:12.300Z,5.53
2018-04-25T13:09:38.127Z,4.60
2018-04-25T13:12:04.075Z,3.50
2018-04-25T13:14:29.747Z,5.40
2018-04-25T13:16:55.336Z,4.63
2018-04-25T13:19:21.125Z,4.43
2018-04-25T13:21:46.891Z,3.93
2018-04-25T13:24:12.582Z,3.93
2018-04-25T13:26:38.159Z,6.57
2018-04-25T13:29:03.866Z,5.40
2018-04-25T13:31:29.481Z,3.67
2018-04-25T13:33:55.189Z,4.70
2018-04-25T13:36:21.264Z,3.73
2018-04-25T13:38:46.873Z,2.37
2018-04-25T13:41:12.418Z,5.23
2018-04-25T13:43:40.521Z,5.13
2018-04-25T13:46:06.169Z,2.70
2018-04-25T13:48:31.745Z,3.43
2018-04-25T13:50:57.461Z,5.63
2018-04-25T13:53:23.054Z,6.07
2018-04-25T13:55:48.721Z,3.87
2018-04-25T13:58:14.611Z,3.83
2018-04-25T14:00:40.415Z,4.53
2018-04-25T14:03:06.098Z,4.67
2018-04-25T14:05:32.117Z,4.07
2018-04-25T14:07:57.734Z,4.10
2018-04-25T14:10:23.499Z,8.03
2018-04-25T14:12:49.361Z,4.60
2018-04-25T14:15:14.969Z,3.03
2018-04-25T14:17:40.582Z,4.50
2018-04-25T14:20:06.382Z,4.00
2018-04-25T14:22:31.955Z,4.53
2018-04-25T14:24:57.532Z,4.90
2018-04-25T14:27:23.331Z,4.73
2018-04-25T14:29:48.915Z,4.50
2018-04-25T14:32:14.544Z,3.17
2018-04-25T14:34:40.645Z,2.17
2018-04-25T14:37:06.275Z,4.03
2018-04-25T14:39:31.907Z,3.07
2018-04-25T14:41:58.096Z,1.87
2018-04-25T14:44:23.653Z,1.80
2018-04-25T14:46:49.242Z,2.30
2018-04-25T14:49:15.385Z,1.97
2018-04-25T14:51:40.962Z,2.53
2018-04-25T14:54:06.537Z,1.80
2018-04-25T14:56:32.365Z,3.22
2018-04-25T14:58:57.939Z,1.70
2018-04-25T15:01:23.891Z,1.83
2018-04-25T15:03:49.592Z,2.00
2018-04-25T15:06:15.211Z,1.63
2018-04-25T15:08:41.136Z,2.00
2018-04-25T15:11:07.036Z,2.13
2018-04-25T15:13:32.821Z,2.80
2018-04-25T15:15:58.394Z,1.33
2018-04-25T15:18:24.157Z,1.77
2018-04-25T15:20:49.729Z,2.70
2018-04-25T15:23:15.711Z,3.10
2018-04-25T15:25:41.554Z,3.47
2018-04-25T15:28:07.140Z,2.33
2018-04-25T15:30:32.772Z,3.60
2018-04-25T15:32:58.784Z,2.03
2018-04-25T15:35:24.351Z,2.53
2018-04-25T15:37:50.189Z,4.73
2018-04-25T15:40:16.080Z,2.80
2018-04-25T15:42:41.658Z,2.47
2018-04-25T15:45:07.234Z,2.20
2018-04-25T15:47:32.979Z,1.60
2018-04-25T15:49:58.599Z,3.13
2018-04-25T15:52:24.325Z,3.33
2018-04-25T15:54:50.146Z,2.37
2018-04-25T15:57:15.775Z,1.20
2018-04-25T15:59:41.339Z,1.53
2018-04-25T16:02:07.345Z,1.87
2018-04-25T16:04:33.372Z,2.47
2018-04-25T16:06:58.949Z,2.87
2018-04-25T16:09:24.691Z,1.50
2018-04-25T16:11:50.348Z,2.55
2018-04-25T16:14:16.224Z,1.40
2018-04-25T16:16:41.837Z,6.20
2018-04-25T16:19:07.593Z,1.70
2018-04-25T16:21:33.171Z,1.67
2018-04-25T16:23:58.881Z,2.03
2018-04-25T16:26:25.299Z,1.10
2018-04-25T16:28:51.203Z,1.60
2018-04-25T16:31:17.844Z,3.30
2018-04-25T16:33:43.769Z,1.07
2018-04-25T16:36:09.396Z,1.03
2018-04-25T16:38:35.222Z,0.90
2018-04-25T16:41:01.188Z,2.00
2018-04-25T16:43:26.750Z,3.63
2018-04-25T16:45:52.707Z,2.10
2018-04-25T16:48:18.294Z,1.50
2018-04-25T16:50:43.904Z,2.23
2018-04-25T16:53:09.739Z,3.03
2018-04-25T16:55:35.508Z,2.15
2018-04-25T16:58:01.084Z,1.10
2018-04-25T17:00:26.910Z,0.97
2018-04-25T17:02:52.529Z,1.83
2018-04-25T17:05:18.144Z,1.33
2018-04-25T17:07:43.994Z,1.37
2018-04-25T17:10:09.898Z,2.35
2018-04-25T17:12:36.385Z,1.00
2018-04-25T17:15:04.324Z,2.30
2018-04-25T17:17:30.399Z,2.00
2018-04-25T17:19:55.999Z,2.00
2018-04-25T17:22:22.458Z,1.63
2018-04-25T17:24:48.261Z,1.10
2018-04-25T17:27:13.888Z,2.57
2018-04-25T17:29:39.469Z,1.20
2018-04-25T17:32:05.362Z,1.57
2018-04-25T17:34:30.989Z,2.40
2018-04-25T17:36:56.621Z,1.07
2018-04-25T17:39:23.019Z,1.33
2018-04-25T17:41:48.570Z,2.83
2018-04-25T17:44:14.133Z,2.73
2018-04-25T17:46:40.688Z,1.97
2018-04-25T17:49:06.322Z,1.62
2018-04-25T17:51:31.955Z,2.20
2018-04-25T17:53:57.801Z,1.53
2018-04-25T17:56:23.425Z,1.43
2018-04-25T17:58:49.046Z,1.33
2018-04-25T18:01:15.140Z,1.50
2018-04-25T18:03:40.801Z,2.33
2018-04-25T18:06:06.796Z,1.60
2018-04-25T18:08:32.586Z,1.83
2018-04-25T18:10:58.208Z,1.97
2018-04-25T18:13:23.846Z,1.50
2018-04-25T18:15:49.611Z,2.20
2018-04-25T18:18:15.445Z,1.20
2018-04-25T18:20:41.020Z,2.70
2018-04-25T18:23:06.634Z,2.50
2018-04-25T18:25:32.928Z,1.20
2018-04-25T18:27:58.768Z,1.20
2018-04-25T18:30:24.466Z,1.27
2018-04-25T18:32:50.280Z,1.87
2018-04-25T18:35:15.936Z,2.23
2018-04-25T18:37:41.507Z,1.93
2018-04-25T18:40:07.300Z,1.50
2018-04-25T18:42:32.913Z,2.40
2018-04-25T18:44:58.678Z,1.87
2018-04-25T18:47:24.485Z,1.90
2018-04-25T18:49:50.049Z,1.40
2018-04-25T18:52:15.693Z,2.40
2018-04-25T18:54:41.475Z,1.83
2018-04-25T18:57:07.138Z,1.90
2018-04-25T18:59:32.926Z,2.07
2018-04-25T19:01:58.621Z,1.60
2018-04-25T19:04:24.313Z,1.60
2018-04-25T19:06:49.884Z,2.93
2018-04-25T19:09:18.267Z,1.70
2018-04-25T19:11:44.018Z,1.57
2018-04-25T19:14:09.618Z,3.13
2018-04-25T19:16:35.696Z,2.27
2018-04-25T19:19:01.814Z,3.47
2018-04-25T19:21:27.404Z,2.92
2018-04-25T19:23:53.362Z,2.33
2018-04-25T19:26:19.282Z,2.47
2018-04-25T19:28:45.242Z,2.30
2018-04-25T19:31:10.994Z,2.23
2018-04-25T19:33:36.687Z,3.70
2018-04-25T19:36:02.529Z,2.30
2018-04-25T19:38:28.274Z,2.87
2018-04-25T19:40:53.921Z,3.10
2018-04-25T19:43:19.542Z,2.07
2018-04-25T19:45:45.669Z,1.83
2018-04-25T19:48:11.299Z,2.40
2018-04-25T19:50:36.867Z,3.17
2018-04-25T19:53:02.935Z,3.63
2018-04-25T19:55:28.604Z,3.80
2018-04-25T19:57:54.289Z,2.70
2018-04-25T20:00:20.279Z,1.60
2018-04-25T20:02:45.849Z,2.43
2018-04-25T20:05:11.649Z,2.10
2018-04-25T20:07:37.507Z,2.00
2018-04-25T20:10:03.083Z,1.40
2018-04-25T20:12:29.168Z,1.73
2018-04-25T20:14:54.913Z,1.63
2018-04-25T20:17:20.533Z,2.45
2018-04-25T20:19:46.325Z,1.80
2018-04-25T20:22:12.184Z,1.70
2018-04-25T20:24:37.775Z,1.57
2018-04-25T20:27:03.555Z,1.30
2018-04-25T20:29:29.133Z,1.77
2018-04-25T20:31:54.765Z,2.23
2018-04-25T20:34:20.652Z,1.87
2018-04-25T20:36:46.238Z,2.30
2018-04-25T20:39:11.842Z,1.47
2018-04-25T20:41:37.761Z,1.80
2018-04-25T20:44:03.716Z,3.53
2018-04-25T20:46:29.535Z,2.23
2018-04-25T20:48:55.847Z,1.63
2018-04-25T20:51:21.398Z,1.80
2018-04-25T20:53:47.024Z,2.20
2018-04-25T20:56:12.802Z,2.03
2018-04-25T20:58:38.428Z,1.60
2018-04-25T21:01:04.256Z,2.63
2018-04-25T21:03:30.385Z,2.30
2018-04-25T21:05:56.191Z,2.65
2018-04-25T21:08:21.767Z,2.43
2018-04-25T21:10:48.078Z,2.63
2018-04-25T21:13:13.989Z,2.27
2018-04-25T21:15:39.697Z,1.60
2018-04-25T21:18:05.513Z,2.83
2018-04-25T21:20:31.331Z,1.93
2018-04-25T21:22:56.973Z,2.00
2018-04-25T21:25:22.544Z,3.40
2018-04-25T21:27:48.397Z,2.70
2018-04-25T21:30:14.067Z,2.23
2018-04-25T21:32:39.683Z,2.20
2018-04-25T21:35:05.498Z,2.70
2018-04-25T21:37:31.127Z,2.40
2018-04-25T21:39:56.929Z,2.70
2018-04-25T21:42:22.889Z,2.40
2018-04-25T21:44:48.884Z,4.27
2018-04-25T21:47:14.454Z,4.53
2018-04-25T21:49:40.358Z,2.63
2018-04-25T21:52:05.971Z,2.60
2018-04-25T21:54:31.606Z,2.80
2018-04-25T21:56:57.411Z,3.80
2018-04-25T21:59:23.000Z,3.70
2018-04-25T22:01:48.551Z,3.70
2018-04-25T22:04:14.548Z,3.23
2018-04-25T22:06:40.111Z,3.10
2018-04-25T22:09:05.816Z,3.77
2018-04-25T22:11:31.614Z,3.27
2018-04-25T22:13:57.270Z,3.77
2018-04-25T22:16:22.969Z,2.73
2018-04-25T22:18:48.808Z,2.70
2018-04-25T22:21:14.709Z,3.10
2018-04-25T22:23:40.302Z,3.60
2018-04-25T22:26:06.193Z,2.77
2018-04-25T22:28:31.754Z,2.70
2018-04-25T22:30:58.645Z,3.80
2018-04-25T22:33:24.394Z,5.27
2018-04-25T22:35:50.218Z,2.67
2018-04-25T22:38:15.857Z,2.60
2018-04-25T22:40:41.601Z,3.07
2018-04-25T22:43:07.263Z,3.87
2018-04-25T22:45:32.936Z,3.37
2018-04-25T22:47:59.143Z,4.33
2018-04-25T22:50:24.765Z,2.87
2018-04-25T22:52:50.353Z,4.20
2018-04-25T22:55:16.050Z,4.70
2018-04-25T22:57:41.632Z,4.83
2018-04-25T23:00:07.185Z,3.20
2018-04-25T23:05:05.218Z,2.93
2018-04-25T23:07:30.941Z,3.90
